Time;durP1;ratioP1;P1;durP2;ratioP2;P2;SDS_P1;SDS_P2;PMS_P1;PMS_P2;Temp;Humidity;BMP_temperature;BMP_pressure;BME280_temperature;BME280_humidity;BME280_pressure;Samples;Min_cycle;Max_cycle;Signal;HPM_P1;HPM_P2
2021/12/22 00:01:16;;;;;;;7.57;4.90;;;-4.30;64.40;;;;;;5079081;28;20420;-55
2021/12/22 00:03:46;;;;;;;8.45;5.25;;;-4.30;64.40;;;;;;5086429;28;20058;-54
2021/12/22 00:06:14;;;;;;;7.65;5.20;;;-4.30;64.80;;;;;;5082590;28;20024;-53
2021/12/22 00:08:39;;;;;;;7.45;5.30;;;-4.30;64.90;;;;;;5083759;28;20024;-55
2021/12/22 00:11:05;;;;;;;5.93;4.43;;;-4.30;64.40;;;;;;5082450;28;20513;-55
2021/12/22 00:13:31;;;;;;;5.78;4.65;;;-4.30;64.40;;;;;;5086797;28;20035;-53
2021/12/22 00:15:57;;;;;;;8.15;5.43;;;-4.30;64.40;;;;;;5081747;28;20032;-52
2021/12/22 00:18:22;;;;;;;7.43;4.82;;;-4.30;64.30;;;;;;5086086;28;20036;-51
2021/12/22 00:20:48;;;;;;;8.05;5.15;;;-4.30;64.40;;;;;;5086061;28;20086;-53
2021/12/22 00:23:14;;;;;;;7.47;5.10;;;-4.20;64.40;;;;;;5076717;28;20048;-52
2021/12/22 00:25:39;;;;;;;7.47;4.75;;;-4.20;64.30;;;;;;5090357;28;20040;-54
2021/12/22 00:28:05;;;;;;;7.70;4.82;;;-4.20;64.10;;;;;;5080798;28;20034;-52
2021/12/22 00:30:31;;;;;;;7.13;4.93;;;-4.20;63.80;;;;;;5096662;28;20031;-51
2021/12/22 00:33:03;;;;;;;6.18;4.50;;;-4.20;63.60;;;;;;5083489;28;20112;-52
2021/12/22 00:35:37;;;;;;;7.25;4.95;;;-4.20;63.50;;;;;;5090010;28;20016;-54
2021/12/22 00:38:07;;;;;;;7.70;4.65;;;-4.20;63.40;;;;;;5087572;28;20028;-54
2021/12/22 00:40:33;;;;;;;8.77;4.57;;;-4.20;63.30;;;;;;5088188;28;20024;-51
2021/12/22 00:42:59;;;;;;;6.88;4.63;;;-4.20;63.20;;;;;;5087544;28;20031;-53
2021/12/22 00:45:27;;;;;;;7.82;4.82;;;-4.20;63.10;;;;;;5090905;28;20427;-55
2021/12/22 00:47:54;;;;;;;7.70;4.68;;;-4.30;63.10;;;;;;5084140;28;20031;-53
2021/12/22 00:50:19;;;;;;;7.90;4.88;;;-4.30;63.00;;;;;;5089006;28;20059;-55
2021/12/22 00:52:45;;;;;;;7.82;5.18;;;-4.30;62.90;;;;;;5089810;28;20028;-51
2021/12/22 00:55:14;;;;;;;7.55;4.70;;;-4.30;63.00;;;;;;5089737;28;20030;-50
2021/12/22 00:57:39;;;;;;;9.35;6.03;;;-4.40;63.00;;;;;;5078696;28;20032;-54
2021/12/22 01:00:08;;;;;;;7.43;5.05;;;-4.40;62.90;;;;;;5082317;28;20036;-53
2021/12/22 01:02:34;;;;;;;8.35;5.10;;;-4.40;63.00;;;;;;5080654;28;20533;-52
2021/12/22 01:05:00;;;;;;;6.35;5.15;;;-4.40;63.10;;;;;;5088713;28;20032;-50
2021/12/22 01:07:25;;;;;;;7.43;5.13;;;-4.40;63.10;;;;;;5082925;28;20067;-53
2021/12/22 01:09:51;;;;;;;8.52;5.30;;;-4.40;63.00;;;;;;5087035;28;20024;-51
2021/12/22 01:12:17;;;;;;;4.80;4.03;;;-4.50;63.00;;;;;;5082242;28;20376;-51
2021/12/22 01:14:43;;;;;;;6.57;4.90;;;-4.50;63.00;;;;;;5091113;28;20161;-53
2021/12/22 01:17:13;;;;;;;7.82;4.78;;;-4.50;63.00;;;;;;5090457;28;20077;-55
2021/12/22 01:19:50;;;;;;;7.30;4.85;;;-4.60;63.10;;;;;;5084131;28;20042;-54
2021/12/22 01:22:36;;;;;;;9.18;5.40;;;-4.60;63.10;;;;;;5081075;28;20032;-50
2021/12/22 01:25:06;;;;;;;4.82;4.22;;;-4.70;63.20;;;;;;5089258;28;20036;-52
2021/12/22 01:27:37;;;;;;;5.00;4.50;;;-4.70;63.20;;;;;;5090127;28;20043;-54
2021/12/22 01:30:08;;;;;;;6.97;4.88;;;-4.80;63.40;;;;;;5085371;28;20387;-54
2021/12/22 01:32:33;;;;;;;5.13;4.63;;;-4.80;63.60;;;;;;5091601;28;20529;-54
2021/12/22 01:34:59;;;;;;;6.55;4.75;;;-4.90;63.70;;;;;;5094926;28;20055;-54
2021/12/22 01:37:25;;;;;;;5.78;4.68;;;-4.90;63.70;;;;;;5094592;28;20028;-53
2021/12/22 01:39:51;;;;;;;6.72;4.78;;;-4.90;63.80;;;;;;5081264;28;20051;-52
2021/12/22 01:42:17;;;;;;;8.13;5.45;;;-4.90;63.70;;;;;;5083866;28;20028;-51
2021/12/22 01:45:12;;;;;;;7.82;4.75;;;-4.90;63.60;;;;;;5079199;28;20024;-52
2021/12/22 01:50:43;;;;;;;9.13;5.38;;;-4.80;63.50;;;;;;5085313;28;20035;-53
2021/12/22 01:53:21;;;;;;;6.65;4.80;;;-4.80;63.40;;;;;;5078062;28;20021;-54
2021/12/22 01:56:05;;;;;;;6.85;5.13;;;-4.80;63.40;;;;;;5075561;28;20028;-50
2021/12/22 01:58:37;;;;;;;7.93;5.78;;;-4.80;63.30;;;;;;5084023;28;20043;-52
2021/12/22 02:01:05;;;;;;;10.07;5.25;;;-4.80;63.20;;;;;;5093630;28;20047;-54
2021/12/22 02:03:31;;;;;;;9.00;5.30;;;-4.70;63.30;;;;;;5091902;28;20484;-52
2021/12/22 02:05:57;;;;;;;8.07;5.18;;;-4.70;63.20;;;;;;5081939;28;20028;-51
2021/12/22 02:08:23;;;;;;;7.60;4.70;;;-4.70;63.00;;;;;;5086392;28;20545;-51
2021/12/22 02:10:49;;;;;;;9.20;5.03;;;-4.70;62.90;;;;;;5074920;28;20468;-53
2021/12/22 02:13:21;;;;;;;8.95;5.88;;;-4.70;63.00;;;;;;5080841;28;20027;-50
2021/12/22 02:15:48;;;;;;;8.55;4.78;;;-4.70;62.90;;;;;;5093667;28;20039;-51
2021/12/22 02:18:19;;;;;;;8.82;5.47;;;-4.70;62.80;;;;;;5083006;28;20084;-50
2021/12/22 02:20:47;;;;;;;9.15;5.57;;;-4.70;62.80;;;;;;5086576;28;20036;-50
2021/12/22 02:23:13;;;;;;;7.18;5.25;;;-4.80;62.70;;;;;;5080819;28;20377;-54
2021/12/22 02:25:51;;;;;;;6.75;5.40;;;-4.80;62.70;;;;;;5083104;28;20036;-50
2021/12/22 02:28:25;;;;;;;7.97;5.22;;;-4.80;62.70;;;;;;5082261;28;20035;-51
2021/12/22 02:30:52;;;;;;;9.43;4.88;;;-4.80;62.60;;;;;;5090310;28;20824;-51
2021/12/22 02:33:32;;;;;;;10.10;5.85;;;-4.90;62.80;;;;;;5088479;28;20033;-54
2021/12/22 02:38:35;;;;;;;7.28;4.80;;;-5.00;62.80;;;;;;5078584;28;20510;-54
2021/12/22 02:41:02;;;;;;;8.02;4.93;;;-5.00;63.00;;;;;;5081509;28;20057;-54
2021/12/22 02:43:32;;;;;;;8.75;6.13;;;-5.00;63.00;;;;;;5084154;28;20107;-50
2021/12/22 02:45:59;;;;;;;8.80;4.75;;;-5.00;62.90;;;;;;5090273;28;20024;-52
2021/12/22 02:48:29;;;;;;;10.23;5.65;;;-4.90;63.00;;;;;;5091063;28;20035;-55
2021/12/22 02:50:56;;;;;;;10.07;5.53;;;-4.90;63.00;;;;;;5079916;28;20109;-50
2021/12/22 02:53:27;;;;;;;9.30;5.35;;;-4.90;62.90;;;;;;5080621;28;20029;-50
2021/12/22 02:56:06;;;;;;;9.77;5.78;;;-4.90;62.90;;;;;;5088367;28;20028;-52
2021/12/22 03:06:03;;;;;;;9.98;5.60;;;-5.00;62.70;;;;;;5082107;28;20050;-51
2021/12/22 03:08:29;;;;;;;6.90;5.05;;;-5.00;62.60;;;;;;5091469;28;20050;-51
2021/12/22 03:10:55;;;;;;;8.80;5.45;;;-5.00;62.60;;;;;;5083763;28;20099;-50
2021/12/22 03:13:22;;;;;;;8.25;5.30;;;-5.00;62.70;;;;;;5082250;28;20024;-50
2021/12/22 03:15:47;;;;;;;9.43;5.70;;;-5.00;62.70;;;;;;5093064;28;20039;-52
2021/12/22 03:18:13;;;;;;;10.27;5.38;;;-5.00;62.70;;;;;;5079952;28;20099;-52
2021/12/22 03:20:39;;;;;;;10.85;6.00;;;-5.00;62.70;;;;;;5090202;28;20044;-52
2021/12/22 03:23:05;;;;;;;7.95;5.05;;;-5.00;62.70;;;;;;5075177;28;20511;-51
2021/12/22 03:25:31;;;;;;;8.80;5.32;;;-5.00;62.70;;;;;;5086351;28;20032;-54
2021/12/22 03:28:02;;;;;;;9.30;6.07;;;-5.00;62.60;;;;;;5079919;28;20032;-50
2021/12/22 03:30:29;;;;;;;9.23;6.05;;;-5.10;62.60;;;;;;5089480;28;20028;-52
2021/12/22 03:32:54;;;;;;;10.52;6.03;;;-5.10;62.70;;;;;;5081733;28;20090;-51
2021/12/22 03:35:21;;;;;;;7.95;5.68;;;-5.10;62.70;;;;;;5085545;28;20028;-51
2021/12/22 03:37:51;;;;;;;9.88;6.88;;;-5.10;62.70;;;;;;5092109;28;20036;-52
2021/12/22 03:40:19;;;;;;;9.65;6.18;;;-5.10;62.70;;;;;;5078133;28;20035;-53
2021/12/22 03:42:45;;;;;;;9.02;5.57;;;-5.10;62.70;;;;;;5080032;28;20055;-51
2021/12/22 03:45:11;;;;;;;8.43;5.25;;;-5.10;62.70;;;;;;5090083;28;20404;-51
2021/12/22 03:47:36;;;;;;;8.13;5.28;;;-5.10;62.70;;;;;;5090088;28;20071;-51
2021/12/22 03:50:04;;;;;;;8.52;6.30;;;-5.10;62.80;;;;;;5093444;28;20044;-52
2021/12/22 03:52:30;;;;;;;10.13;6.40;;;-5.10;62.60;;;;;;5091106;28;20085;-53
2021/12/22 03:54:58;;;;;;;10.95;5.88;;;-5.10;62.70;;;;;;5081800;28;20481;-50
2021/12/22 03:57:25;;;;;;;10.13;6.65;;;-5.20;62.60;;;;;;5073908;28;20071;-50
2021/12/22 03:59:51;;;;;;;10.02;6.18;;;-5.20;62.70;;;;;;5074269;28;20024;-54
2021/12/22 04:02:19;;;;;;;8.73;5.88;;;-5.20;62.70;;;;;;5079067;28;20085;-52
2021/12/22 04:04:47;;;;;;;10.75;6.55;;;-5.20;62.80;;;;;;5088533;28;20488;-50
2021/12/22 04:07:13;;;;;;;13.23;7.10;;;-5.20;62.80;;;;;;5091838;28;20024;-53
2021/12/22 04:09:39;;;;;;;9.55;6.35;;;-5.20;62.80;;;;;;5081318;28;20454;-50
2021/12/22 04:12:05;;;;;;;12.35;7.00;;;-5.20;62.80;;;;;;5081047;28;20103;-53
2021/12/22 04:14:31;;;;;;;9.60;5.78;;;-5.20;62.70;;;;;;5083385;28;20396;-52
2021/12/22 04:16:56;;;;;;;11.20;7.05;;;-5.20;62.70;;;;;;5083726;28;20024;-50
2021/12/22 04:19:22;;;;;;;9.48;6.28;;;-5.20;62.60;;;;;;5091945;28;20028;-54
2021/12/22 04:21:49;;;;;;;10.13;6.07;;;-5.20;62.70;;;;;;5079394;28;20060;-51
2021/12/22 04:24:15;;;;;;;10.35;5.40;;;-5.20;62.80;;;;;;5074885;28;20048;-50
2021/12/22 04:26:41;;;;;;;9.05;5.75;;;-5.20;62.70;;;;;;5088612;28;20478;-53
2021/12/22 04:29:09;;;;;;;10.48;6.28;;;-5.20;62.70;;;;;;5073731;28;20017;-51
2021/12/22 04:31:35;;;;;;;10.23;6.30;;;-5.20;62.70;;;;;;5084050;28;20028;-50
2021/12/22 04:34:03;;;;;;;9.90;6.10;;;-5.20;62.80;;;;;;5079754;28;20034;-51
2021/12/22 04:36:29;;;;;;;9.35;5.93;;;-5.20;62.90;;;;;;5084127;28;20369;-54
2021/12/22 04:38:57;;;;;;;8.32;5.03;;;-5.20;62.80;;;;;;5091350;28;20036;-53
2021/12/22 04:41:22;;;;;;;10.88;6.10;;;-5.20;62.80;;;;;;5076235;28;20468;-53
2021/12/22 04:43:48;;;;;;;10.27;5.60;;;-5.20;62.60;;;;;;5089467;28;20032;-52
2021/12/22 04:46:13;;;;;;;10.52;7.28;;;-5.20;62.60;;;;;;5079432;28;20544;-51
2021/12/22 04:48:39;;;;;;;10.88;6.00;;;-5.20;62.70;;;;;;5081164;28;20119;-54
2021/12/22 04:51:13;;;;;;;13.45;6.47;;;-5.20;62.60;;;;;;5089441;28;20024;-53
2021/12/22 04:53:50;;;;;;;11.88;6.45;;;-5.20;62.60;;;;;;5088623;28;20031;-50
2021/12/22 04:56:15;;;;;;;13.60;6.95;;;-5.20;62.60;;;;;;5072498;28;20032;-51
2021/12/22 04:58:41;;;;;;;12.10;7.30;;;-5.20;62.60;;;;;;5075813;28;20037;-52
2021/12/22 05:01:07;;;;;;;9.52;6.82;;;-5.10;62.60;;;;;;5080546;28;20024;-54
2021/12/22 05:03:32;;;;;;;11.80;6.75;;;-5.10;62.40;;;;;;5089789;28;20038;-53
2021/12/22 05:05:58;;;;;;;15.45;8.13;;;-5.20;62.30;;;;;;5088443;28;20032;-53
2021/12/22 05:08:23;;;;;;;10.38;6.30;;;-5.20;62.30;;;;;;5088072;28;20024;-52
2021/12/22 05:10:49;;;;;;;12.63;7.35;;;-5.20;62.40;;;;;;5088234;28;20447;-53
2021/12/22 05:13:15;;;;;;;16.27;7.70;;;-5.30;62.30;;;;;;5089937;28;20024;-50
2021/12/22 05:15:40;;;;;;;13.30;7.53;;;-5.30;62.70;;;;;;5077134;28;20033;-54
2021/12/22 05:20:38;;;;;;;11.73;7.43;;;-5.40;62.80;;;;;;5086542;28;20039;-50
2021/12/22 05:23:04;;;;;;;9.70;6.95;;;-5.30;62.70;;;;;;5083730;28;20044;-55
2021/12/22 05:25:29;;;;;;;13.45;6.35;;;-5.30;62.80;;;;;;5080333;28;20033;-52
2021/12/22 05:27:55;;;;;;;11.57;7.13;;;-5.30;62.70;;;;;;5077410;28;20495;-50
2021/12/22 05:30:21;;;;;;;7.72;5.60;;;-5.30;62.80;;;;;;5078324;28;20035;-51
2021/12/22 05:32:47;;;;;;;10.07;6.15;;;-5.30;62.70;;;;;;5094882;28;20024;-53
2021/12/22 05:35:12;;;;;;;9.35;6.28;;;-5.40;62.70;;;;;;5077014;28;20020;-50
2021/12/22 05:37:38;;;;;;;11.57;7.00;;;-5.40;62.80;;;;;;5073860;28;20059;-54
2021/12/22 05:40:06;;;;;;;14.95;7.13;;;-5.40;63.00;;;;;;5083600;28;20048;-54
2021/12/22 05:42:32;;;;;;;10.35;7.38;;;-5.40;63.20;;;;;;5086753;28;20471;-50
2021/12/22 05:44:58;;;;;;;12.60;7.47;;;-5.40;63.10;;;;;;5085280;28;20031;-50
2021/12/22 05:47:24;;;;;;;15.10;8.32;;;-5.40;63.00;;;;;;5094196;28;20416;-54
2021/12/22 05:49:49;;;;;;;15.85;7.95;;;-5.30;63.20;;;;;;5083173;28;20032;-55
2021/12/22 05:52:15;;;;;;;8.73;6.50;;;-5.30;63.10;;;;;;5088386;28;20020;-55
2021/12/22 05:54:41;;;;;;;13.80;7.88;;;-5.30;63.00;;;;;;5088136;28;20043;-52
2021/12/22 05:57:06;;;;;;;15.68;8.13;;;-5.20;63.00;;;;;;5085062;28;20039;-53
2021/12/22 05:59:32;;;;;;;14.68;8.68;;;-5.20;62.80;;;;;;5087762;28;20032;-53
2021/12/22 06:01:58;;;;;;;17.23;9.20;;;-5.20;62.90;;;;;;5088828;28;20426;-51
2021/12/22 06:04:23;;;;;;;12.05;8.40;;;-5.20;62.90;;;;;;5091768;28;20028;-53
2021/12/22 06:06:49;;;;;;;14.25;7.68;;;-5.20;63.00;;;;;;5081971;28;20103;-54
2021/12/22 06:09:14;;;;;;;12.48;8.25;;;-5.20;63.60;;;;;;5080837;28;20076;-54
2021/12/22 06:11:40;;;;;;;13.55;7.53;;;-5.20;63.00;;;;;;5082776;28;20476;-55
2021/12/22 06:14:06;;;;;;;12.10;7.03;;;-5.20;63.10;;;;;;5077766;28;20024;-52
2021/12/22 06:16:32;;;;;;;15.90;7.53;;;-5.20;63.30;;;;;;5078012;28;20035;-53
2021/12/22 06:19:02;;;;;;;14.32;8.15;;;-5.10;63.40;;;;;;5078128;28;20052;-52
2021/12/22 06:21:29;;;;;;;12.43;7.82;;;-5.00;63.50;;;;;;5079083;28;20055;-53
2021/12/22 06:23:55;;;;;;;12.85;7.78;;;-4.90;63.40;;;;;;5081228;28;20044;-54
2021/12/22 06:26:21;;;;;;;13.88;7.82;;;-4.80;63.30;;;;;;5078479;28;20082;-54
2021/12/22 06:28:46;;;;;;;15.60;7.57;;;-4.70;63.30;;;;;;5077224;28;20090;-54
2021/12/22 06:31:12;;;;;;;14.27;7.38;;;-4.60;63.20;;;;;;5075887;28;20028;-52
2021/12/22 06:33:37;;;;;;;11.05;7.93;;;-4.50;63.20;;;;;;5080751;28;20024;-55
2021/12/22 06:36:04;;;;;;;9.27;7.22;;;-4.40;63.20;;;;;;5075826;28;20062;-52
2021/12/22 06:38:29;;;;;;;10.85;8.02;;;-4.40;63.10;;;;;;5076244;28;20044;-50
2021/12/22 06:40:55;;;;;;;11.35;6.57;;;-4.40;62.80;;;;;;5079328;28;20028;-51
2021/12/22 06:43:21;;;;;;;13.63;8.18;;;-4.40;62.70;;;;;;5080065;28;20028;-53
2021/12/22 06:45:47;;;;;;;10.68;6.95;;;-4.40;62.70;;;;;;5074425;28;20036;-53
2021/12/22 06:48:12;;;;;;;13.32;8.05;;;-4.40;62.90;;;;;;5073482;28;20036;-52
2021/12/22 06:50:38;;;;;;;12.98;7.55;;;-4.40;62.90;;;;;;5072992;28;20039;-53
2021/12/22 06:53:04;;;;;;;11.02;7.22;;;-4.30;63.00;;;;;;5076675;28;20027;-51
2021/12/22 06:55:29;;;;;;;10.40;6.63;;;-4.30;63.10;;;;;;5081467;28;20028;-53
2021/12/22 06:57:55;;;;;;;15.57;9.27;;;-4.20;62.90;;;;;;5072671;28;20028;-52
2021/12/22 07:00:22;;;;;;;13.85;8.23;;;-4.20;62.90;;;;;;5070850;28;20709;-54
2021/12/22 07:02:47;;;;;;;11.95;7.57;;;-4.20;63.10;;;;;;5070776;28;20499;-55
2021/12/22 07:05:13;;;;;;;11.23;7.03;;;-4.10;63.00;;;;;;5071301;28;20024;-51
2021/12/22 07:07:40;;;;;;;9.60;6.45;;;-4.10;63.00;;;;;;5069642;28;20036;-56
2021/12/22 07:10:08;;;;;;;9.93;6.97;;;-4.00;62.90;;;;;;5071041;28;20028;-54
2021/12/22 07:12:43;;;;;;;10.10;5.70;;;-4.00;62.80;;;;;;5071753;28;20115;-53
2021/12/22 07:15:14;;;;;;;10.70;6.75;;;-4.00;62.70;;;;;;5072410;28;20051;-51
2021/12/22 07:17:41;;;;;;;10.10;6.38;;;-4.10;62.80;;;;;;5073569;28;20032;-54
2021/12/22 07:20:08;;;;;;;11.07;6.18;;;-4.10;63.00;;;;;;5074289;28;20430;-55
2021/12/22 07:22:34;;;;;;;8.43;6.00;;;-4.10;63.10;;;;;;5076612;28;20044;-54
2021/12/22 07:25:00;;;;;;;11.82;7.00;;;-4.10;63.20;;;;;;5074558;28;20051;-56
2021/12/22 07:27:25;;;;;;;10.50;6.72;;;-4.10;63.30;;;;;;5067078;28;20112;-53
2021/12/22 07:29:51;;;;;;;10.70;7.05;;;-4.10;63.20;;;;;;5068684;28;20078;-58
2021/12/22 07:32:17;;;;;;;11.27;6.15;;;-4.20;63.30;;;;;;5060159;28;20036;-56
2021/12/22 07:35:04;;;;;;;9.98;6.43;;;-4.20;63.10;;;;;;5067813;28;20025;-58
2021/12/22 07:37:57;;;;;;;9.45;6.45;;;-4.30;63.10;;;;;;5058027;28;20119;-57
2021/12/22 07:40:23;;;;;;;10.25;6.15;;;-4.30;63.30;;;;;;5066975;28;20415;-58
2021/12/22 07:42:49;;;;;;;8.48;5.32;;;-4.30;63.30;;;;;;5068727;28;20036;-58
2021/12/22 07:45:15;;;;;;;9.25;5.60;;;-4.30;63.20;;;;;;5070677;28;21066;-58
2021/12/22 07:47:41;;;;;;;8.93;5.88;;;-4.30;63.10;;;;;;5065743;28;20042;-58
2021/12/22 07:50:08;;;;;;;9.77;5.57;;;-4.30;63.00;;;;;;5067796;28;20059;-58
2021/12/22 07:52:33;;;;;;;8.82;5.85;;;-4.40;62.80;;;;;;5073176;28;20539;-55
2021/12/22 07:54:59;;;;;;;8.20;5.38;;;-4.40;62.90;;;;;;5069623;28;20038;-57
2021/12/22 07:57:25;;;;;;;7.38;5.35;;;-4.40;63.20;;;;;;5066884;28;20081;-58
2021/12/22 07:59:51;;;;;;;7.55;4.97;;;-4.40;63.10;;;;;;5071987;28;20040;-57
2021/12/22 08:02:17;;;;;;;6.95;5.05;;;-4.50;62.90;;;;;;5072968;28;20045;-58
2021/12/22 08:04:43;;;;;;;6.65;5.20;;;-4.50;62.80;;;;;;5062433;28;20491;-57
2021/12/22 08:07:09;;;;;;;9.25;6.63;;;-4.50;62.70;;;;;;5064783;28;20166;-58
2021/12/22 08:09:35;;;;;;;7.78;4.85;;;-4.50;62.80;;;;;;5067549;28;20032;-56
2021/12/22 08:12:04;;;;;;;6.63;4.50;;;-4.50;62.70;;;;;;5064637;28;20050;-56
2021/12/22 08:14:35;;;;;;;6.20;4.30;;;-4.50;62.50;;;;;;5067238;28;20039;-58
2021/12/22 08:17:01;;;;;;;5.70;3.90;;;-4.40;62.50;;;;;;5073062;28;20032;-57
2021/12/22 08:19:26;;;;;;;6.70;4.20;;;-4.40;62.20;;;;;;5074517;28;20031;-58
2021/12/22 08:21:52;;;;;;;5.53;3.85;;;-4.40;62.30;;;;;;5078037;28;20094;-55
2021/12/22 08:24:18;;;;;;;6.03;4.28;;;-4.30;62.00;;;;;;5073411;28;20535;-57
2021/12/22 08:26:44;;;;;;;6.93;4.28;;;-4.30;61.90;;;;;;5062134;28;20036;-57
2021/12/22 08:29:10;;;;;;;7.80;4.50;;;-4.30;61.60;;;;;;5067622;28;20028;-58
2021/12/22 08:31:35;;;;;;;6.15;5.32;;;-4.20;61.50;;;;;;5061509;28;20036;-57
2021/12/22 08:34:01;;;;;;;8.15;4.60;;;-4.30;61.50;;;;;;5068928;28;20028;-57
2021/12/22 08:39:14;;;;;;;6.63;4.60;;;-4.20;62.40;;;;;;5069492;28;20084;-59
2021/12/22 08:41:41;;;;;;;5.78;4.88;;;-4.20;61.70;;;;;;5064581;28;20072;-58
2021/12/22 08:44:10;;;;;;;9.77;5.70;;;-4.20;61.70;;;;;;5066636;28;20048;-57
2021/12/22 08:46:42;;;;;;;9.80;5.95;;;-4.20;61.70;;;;;;5066919;28;20031;-55
2021/12/22 08:49:08;;;;;;;8.93;6.03;;;-4.20;61.70;;;;;;5067606;28;20098;-57
2021/12/22 08:51:34;;;;;;;7.80;5.18;;;-4.20;61.60;;;;;;5061938;28;20456;-58
2021/12/22 08:54:01;;;;;;;9.43;5.63;;;-4.20;61.90;;;;;;5065576;28;22488;-59
2021/12/22 08:56:27;;;;;;;6.95;4.53;;;-4.20;61.70;;;;;;5058803;28;20032;-59
2021/12/22 08:58:54;;;;;;;9.30;5.22;;;-4.20;61.70;;;;;;5053674;28;20073;-56
2021/12/22 09:01:21;;;;;;;9.38;5.40;;;-4.20;61.80;;;;;;5062133;28;20032;-58
2021/12/22 09:03:47;;;;;;;6.93;5.13;;;-4.10;61.80;;;;;;5054454;28;20024;-59
2021/12/22 09:06:13;;;;;;;5.97;4.28;;;-4.10;61.90;;;;;;5056733;28;20024;-56
2021/12/22 09:08:41;;;;;;;8.23;4.88;;;-4.10;61.70;;;;;;5058188;28;20044;-59
2021/12/22 09:11:07;;;;;;;7.00;4.60;;;-4.00;61.90;;;;;;5061457;28;20032;-55
2021/12/22 09:13:35;;;;;;;6.65;4.93;;;-4.00;61.40;;;;;;5055653;28;20652;-58
2021/12/22 09:16:01;;;;;;;7.78;5.07;;;-3.90;61.40;;;;;;5056492;28;20432;-56
2021/12/22 09:18:27;;;;;;;5.90;4.47;;;-3.90;61.50;;;;;;5063094;28;20043;-56
2021/12/22 09:20:52;;;;;;;8.93;5.53;;;-3.90;61.50;;;;;;5058575;28;20427;-58
2021/12/22 09:23:18;;;;;;;8.65;5.63;;;-3.80;61.30;;;;;;5057508;28;20941;-57
2021/12/22 09:25:44;;;;;;;6.40;4.32;;;-3.80;61.40;;;;;;5058255;28;20029;-57
2021/12/22 09:28:12;;;;;;;8.32;4.80;;;-3.80;61.30;;;;;;5057487;28;21468;-56
2021/12/22 09:30:41;;;;;;;6.20;4.50;;;-3.70;61.50;;;;;;5073318;28;20024;-55
2021/12/22 09:33:11;;;;;;;6.38;4.70;;;-3.70;61.50;;;;;;5065568;28;20052;-57
2021/12/22 09:35:38;;;;;;;8.05;5.72;;;-3.70;61.50;;;;;;5067996;28;20031;-56
2021/12/22 09:38:04;;;;;;;7.28;5.13;;;-3.60;61.30;;;;;;5066923;28;20028;-56
2021/12/22 09:40:30;;;;;;;6.78;4.97;;;-3.70;61.00;;;;;;5068118;28;20035;-55
2021/12/22 09:42:56;;;;;;;8.88;5.80;;;-3.70;61.20;;;;;;5061949;28;20035;-58
2021/12/22 09:45:24;;;;;;;8.80;4.93;;;-3.70;61.00;;;;;;5054737;28;20070;-58
2021/12/22 09:53:28;;;;;;;6.80;5.15;;;-3.70;61.30;;;;;;5044698;28;20068;-57
2021/12/22 09:55:55;;;;;;;7.97;4.90;;;-3.70;61.10;;;;;;5067360;28;20079;-57
2021/12/22 09:58:22;;;;;;;9.50;5.32;;;-3.70;61.00;;;;;;5056651;28;20036;-59
2021/12/22 10:00:49;;;;;;;9.77;4.95;;;-3.70;61.00;;;;;;5054031;28;20077;-57
2021/12/22 10:03:16;;;;;;;7.00;5.30;;;-3.70;60.90;;;;;;5059700;28;20039;-56
2021/12/22 10:05:44;;;;;;;9.88;4.90;;;-3.70;60.80;;;;;;5063916;28;20024;-57
2021/12/22 10:08:16;;;;;;;7.40;5.13;;;-3.70;60.50;;;;;;5066523;28;20440;-59
2021/12/22 10:10:46;;;;;;;7.03;4.82;;;-3.70;60.40;;;;;;5061886;28;20034;-59
2021/12/22 10:13:21;;;;;;;6.47;4.55;;;-3.80;60.40;;;;;;5060517;28;20131;-55
2021/12/22 10:15:48;;;;;;;5.93;4.15;;;-3.80;60.30;;;;;;5066827;28;20032;-57
2021/12/22 10:18:17;;;;;;;7.07;5.55;;;-3.80;60.40;;;;;;5065722;28;20546;-56
2021/12/22 10:20:45;;;;;;;8.40;5.82;;;-3.70;60.50;;;;;;5056002;28;20802;-57
2021/12/22 10:23:29;;;;;;;7.40;5.13;;;-3.70;60.30;;;;;;5053928;28;20050;-59
2021/12/22 10:25:56;;;;;;;7.13;5.38;;;-3.70;60.10;;;;;;5052478;28;20990;-58
2021/12/22 10:28:23;;;;;;;8.35;5.25;;;-3.70;59.90;;;;;;5057115;28;20044;-59
2021/12/22 10:30:55;;;;;;;7.90;5.65;;;-3.70;59.90;;;;;;5051516;28;20032;-57
2021/12/22 10:33:26;;;;;;;6.45;4.60;;;-3.70;59.90;;;;;;5050851;28;20056;-59
2021/12/22 10:35:55;;;;;;;8.57;4.85;;;-3.70;59.60;;;;;;5053005;28;20529;-57
2021/12/22 10:38:23;;;;;;;6.03;4.72;;;-3.70;59.70;;;;;;5055979;28;20028;-57
2021/12/22 10:40:53;;;;;;;6.95;5.80;;;-3.60;60.00;;;;;;5071648;28;20473;-57
2021/12/22 10:43:30;;;;;;;7.30;5.07;;;-3.60;60.20;;;;;;5066720;28;20092;-56
2021/12/22 10:46:02;;;;;;;6.90;4.88;;;-3.50;60.20;;;;;;5067509;28;20038;-57
2021/12/22 10:51:41;;;;;;;6.90;5.10;;;-3.40;60.20;;;;;;5069345;28;20035;-57
2021/12/22 10:54:09;;;;;;;6.95;4.63;;;-3.30;59.80;;;;;;5073803;28;20099;-59
2021/12/22 10:56:38;;;;;;;7.25;4.93;;;-3.30;59.60;;;;;;5066565;28;20499;-58
2021/12/22 10:59:12;;;;;;;5.45;4.13;;;-3.30;59.40;;;;;;5063058;28;20490;-56
2021/12/22 11:01:57;;;;;;;5.88;5.00;;;-3.30;59.40;;;;;;5062341;28;20040;-58
2021/12/22 11:04:27;;;;;;;5.22;4.30;;;-3.30;59.30;;;;;;5054620;28;20102;-56
2021/12/22 11:06:55;;;;;;;8.45;4.13;;;-3.40;59.10;;;;;;5054412;28;20036;-58
2021/12/22 11:09:23;;;;;;;6.93;4.88;;;-3.40;59.10;;;;;;5058500;28;20036;-58
2021/12/22 11:11:56;;;;;;;8.13;4.50;;;-3.40;59.20;;;;;;5064063;28;20507;-58
2021/12/22 11:14:25;;;;;;;5.70;4.25;;;-3.40;59.40;;;;;;5059796;28;20169;-58
2021/12/22 11:16:53;;;;;;;6.88;4.32;;;-3.40;59.60;;;;;;5072612;28;20151;-58
2021/12/22 11:19:19;;;;;;;6.68;5.55;;;-3.40;59.70;;;;;;5070460;28;20050;-59
2021/12/22 11:24:38;;;;;;;7.05;5.25;;;-3.30;59.90;;;;;;5064292;28;20460;-58
2021/12/22 11:27:05;;;;;;;7.07;5.25;;;-3.30;60.10;;;;;;5066307;28;20032;-56
2021/12/22 11:29:33;;;;;;;8.13;4.75;;;-3.30;60.00;;;;;;5064563;28;20032;-59
2021/12/22 11:32:01;;;;;;;8.15;5.03;;;-3.30;60.10;;;;;;5067701;28;20169;-57
2021/12/22 11:34:30;;;;;;;5.88;4.47;;;-3.30;60.00;;;;;;5069292;28;20039;-58
2021/12/22 11:36:57;;;;;;;7.93;4.60;;;-3.20;60.70;;;;;;5070556;28;20040;-58
2021/12/22 11:39:22;;;;;;;8.63;5.72;;;-3.20;60.20;;;;;;5063553;28;20036;-58
2021/12/22 11:41:57;;;;;;;7.68;5.85;;;-3.20;60.30;;;;;;5070979;28;20024;-57
2021/12/22 11:44:27;;;;;;;9.45;5.88;;;-3.20;60.20;;;;;;5064279;28;20471;-58
2021/12/22 11:46:56;;;;;;;8.77;5.78;;;-3.10;60.00;;;;;;5062379;28;20104;-57
2021/12/22 11:49:23;;;;;;;8.30;6.65;;;-3.10;59.70;;;;;;5053638;28;20028;-58
2021/12/22 11:51:49;;;;;;;9.95;5.32;;;-3.10;59.70;;;;;;5065077;28;20506;-59
2021/12/22 11:54:14;;;;;;;7.22;5.55;;;-3.20;59.60;;;;;;5060370;28;20033;-58
2021/12/22 11:56:48;;;;;;;8.77;5.05;;;-3.20;59.80;;;;;;5076642;28;21491;-57
2021/12/22 11:59:30;;;;;;;6.63;5.28;;;-3.20;59.80;;;;;;5051591;28;20486;-57
2021/12/22 12:02:15;;;;;;;5.88;4.88;;;-3.30;59.90;;;;;;5055619;28;20519;-57
2021/12/22 12:04:40;;;;;;;6.60;5.22;;;-3.30;60.10;;;;;;5055728;28;20028;-56
2021/12/22 12:07:06;;;;;;;9.23;6.50;;;-3.30;60.20;;;;;;5059716;28;20093;-57
2021/12/22 12:09:32;;;;;;;8.35;5.05;;;-3.30;60.40;;;;;;5059896;28;20036;-57
2021/12/22 12:11:58;;;;;;;7.68;4.53;;;-3.30;60.40;;;;;;5062307;28;20039;-57
2021/12/22 12:23:23;;;;;;;8.20;4.88;;;-3.40;60.40;;;;;;5062888;28;20556;-58
2021/12/22 12:25:49;;;;;;;5.55;4.47;;;-3.50;60.70;;;;;;5063079;28;20043;-55
2021/12/22 12:28:17;;;;;;;9.38;6.00;;;-3.40;60.80;;;;;;5060504;28;20036;-56
2021/12/22 12:30:55;;;;;;;7.63;5.18;;;-3.40;60.90;;;;;;5061992;28;20028;-55
2021/12/22 12:33:23;;;;;;;9.55;5.25;;;-3.40;60.90;;;;;;5058235;28;20054;-54
2021/12/22 12:35:57;;;;;;;8.10;5.68;;;-3.40;60.90;;;;;;5062911;28;20106;-55
2021/12/22 12:38:30;;;;;;;10.15;4.68;;;-3.40;60.80;;;;;;5056205;28;20137;-54
2021/12/22 12:40:57;;;;;;;7.95;5.55;;;-3.40;60.80;;;;;;5058656;28;22334;-54
2021/12/22 12:46:21;;;;;;;6.28;4.78;;;-3.50;60.60;;;;;;5043185;28;20047;-59
2021/12/22 12:49:12;;;;;;;6.50;4.13;;;-3.50;60.60;;;;;;5053465;28;20032;-59
2021/12/22 12:51:44;;;;;;;6.53;5.15;;;-3.50;60.50;;;;;;5035434;28;20055;-60
2021/12/22 12:54:16;;;;;;;6.07;5.05;;;-3.50;60.40;;;;;;5053065;28;20780;-59
2021/12/22 12:56:46;;;;;;;5.72;4.72;;;-3.50;60.50;;;;;;5050617;28;20024;-58
2021/12/22 12:59:18;;;;;;;6.60;4.95;;;-3.50;60.60;;;;;;5055453;28;20036;-59
2021/12/22 13:01:46;;;;;;;5.75;4.47;;;-3.50;60.70;;;;;;5051971;28;20028;-57
2021/12/22 13:04:24;;;;;;;6.75;4.78;;;-3.60;60.50;;;;;;5054774;28;20096;-58
2021/12/22 13:06:52;;;;;;;6.63;4.65;;;-3.60;60.40;;;;;;5049210;28;20028;-57
2021/12/22 13:09:27;;;;;;;6.90;4.03;;;-3.60;60.40;;;;;;5054955;28;20068;-57
2021/12/22 13:11:57;;;;;;;4.72;4.10;;;-3.70;60.00;;;;;;5056443;28;20076;-59
2021/12/22 13:17:16;;;;;;;5.38;4.05;;;-3.70;59.90;;;;;;5060856;28;20732;-59
2021/12/22 13:19:47;;;;;;;7.05;3.88;;;-3.70;59.80;;;;;;5054893;28;20036;-58
2021/12/22 13:22:28;;;;;;;6.60;4.88;;;-3.70;59.40;;;;;;5050201;28;20028;-57
2021/12/22 13:25:27;;;;;;;4.57;3.85;;;-3.70;59.40;;;;;;5053604;28;20796;-57
2021/12/22 13:28:16;;;;;;;6.22;4.28;;;-3.70;59.40;;;;;;5055560;28;20028;-58
2021/12/22 13:30:47;;;;;;;6.15;4.30;;;-3.80;58.90;;;;;;5056842;28;20051;-58
2021/12/22 13:33:19;;;;;;;7.68;3.95;;;-3.80;58.70;;;;;;5056383;28;20024;-59